createdAt,value
2017-04-19T00:00:07.819Z,6.00
2017-04-19T00:01:08.114Z,5.87
2017-04-19T00:02:08.243Z,6.50
2017-04-19T00:03:08.240Z,7.05
2017-04-19T00:04:08.471Z,6.13
2017-04-19T00:05:09.395Z,6.02
2017-04-19T00:06:10.519Z,7.48
2017-04-19T00:07:10.611Z,6.55
2017-04-19T00:08:10.790Z,6.67
2017-04-19T00:09:10.884Z,6.07
2017-04-19T00:10:11.079Z,5.95
2017-04-19T00:11:12.314Z,6.75
2017-04-19T00:12:12.367Z,6.75
2017-04-19T00:13:12.538Z,7.23
2017-04-19T00:14:12.554Z,6.87
2017-04-19T00:15:12.578Z,7.00
2017-04-19T00:16:13.270Z,7.02
2017-04-19T00:17:13.797Z,6.48
2017-04-19T00:18:13.811Z,7.68
2017-04-19T00:19:13.912Z,5.88
2017-04-19T00:20:13.939Z,6.77
2017-04-19T00:21:14.305Z,6.72
2017-04-19T00:22:14.408Z,6.77
2017-04-19T00:23:14.553Z,8.37
2017-04-19T00:24:14.606Z,6.28
2017-04-19T00:25:14.670Z,6.83
2017-04-19T00:26:15.165Z,8.55
2017-04-19T00:27:15.975Z,7.98
2017-04-19T00:28:16.068Z,6.78
2017-04-19T00:29:16.049Z,6.75
2017-04-19T00:30:16.199Z,7.35
2017-04-19T00:31:16.523Z,7.55
2017-04-19T00:32:16.555Z,6.68
2017-04-19T00:33:16.573Z,7.70
2017-04-19T00:34:16.616Z,7.53
2017-04-19T00:35:16.635Z,8.25
2017-04-19T00:36:16.959Z,6.58
2017-04-19T00:37:17.001Z,6.57
2017-04-19T00:38:17.125Z,7.35
2017-04-19T00:39:17.217Z,7.27
2017-04-19T00:40:17.230Z,7.30
2017-04-19T00:41:17.610Z,7.28
2017-04-19T00:42:17.745Z,6.83
2017-04-19T00:43:17.764Z,7.12
2017-04-19T00:44:17.796Z,7.92
2017-04-19T00:45:18.592Z,6.37
2017-04-19T00:46:18.970Z,6.62
2017-04-19T00:47:19.098Z,7.80
2017-04-19T00:48:19.869Z,7.60
2017-04-19T00:49:19.989Z,6.52
2017-04-19T00:50:20.058Z,7.10
2017-04-19T00:51:20.452Z,10.00
2017-04-19T00:52:21.210Z,8.30
2017-04-19T00:53:21.187Z,8.53
2017-04-19T00:54:21.219Z,6.72
2017-04-19T00:55:21.277Z,7.80
2017-04-19T00:56:21.716Z,7.35
2017-04-19T00:57:22.574Z,6.95
2017-04-19T00:58:22.594Z,7.77
2017-04-19T00:59:22.675Z,6.97
2017-04-19T01:00:22.760Z,6.87
2017-04-19T01:01:23.877Z,7.38
2017-04-19T01:02:23.914Z,6.82
2017-04-19T01:03:24.012Z,7.73
2017-04-19T01:04:24.791Z,7.50
2017-04-19T01:05:25.530Z,11.13
2017-04-19T01:06:25.857Z,7.85
2017-04-19T01:07:25.870Z,7.27
2017-04-19T01:08:26.668Z,8.12
2017-04-19T01:09:26.701Z,7.47
2017-04-19T01:10:27.501Z,9.28
2017-04-19T01:11:27.859Z,9.88
2017-04-19T01:12:27.879Z,7.55
2017-04-19T01:13:27.906Z,8.00
2017-04-19T01:14:27.938Z,8.55
2017-04-19T01:15:28.623Z,8.10
2017-04-19T01:16:29.003Z,8.68
2017-04-19T01:17:29.075Z,7.65
2017-04-19T01:18:29.138Z,8.23
2017-04-19T01:19:29.271Z,8.42
2017-04-19T01:20:29.319Z,8.10
2017-04-19T01:21:29.758Z,6.97
2017-04-19T01:22:29.843Z,7.42
2017-04-19T01:23:29.885Z,8.82
2017-04-19T01:24:29.909Z,8.85
2017-04-19T01:25:30.038Z,6.52
2017-04-19T01:26:30.390Z,8.40
2017-04-19T01:27:30.387Z,7.13
2017-04-19T01:28:30.427Z,7.15
2017-04-19T01:29:30.451Z,7.60
2017-04-19T01:30:30.495Z,7.55
2017-04-19T01:31:31.054Z,8.08
2017-04-19T01:32:31.138Z,7.08
2017-04-19T01:33:32.039Z,8.18
2017-04-19T01:34:32.094Z,7.85
2017-04-19T01:35:32.851Z,7.32
2017-04-19T01:36:33.219Z,7.77
2017-04-19T01:37:33.331Z,8.48
2017-04-19T01:38:33.370Z,7.52
2017-04-19T01:39:33.370Z,7.95
2017-04-19T01:40:33.379Z,8.08
2017-04-19T01:41:33.857Z,7.68
2017-04-19T01:42:33.914Z,8.18
2017-04-19T01:43:33.971Z,9.35
2017-04-19T01:44:34.591Z,8.50
2017-04-19T01:45:34.803Z,8.07
2017-04-19T01:46:35.244Z,8.28
2017-04-19T01:47:35.986Z,7.80
2017-04-19T01:48:36.033Z,12.75
2017-04-19T01:49:36.116Z,7.48
2017-04-19T01:50:36.175Z,8.87
2017-04-19T01:51:36.970Z,8.02
2017-04-19T01:52:37.104Z,8.95
2017-04-19T01:53:37.177Z,7.55
2017-04-19T01:54:37.223Z,8.33
2017-04-19T01:55:37.311Z,9.45
2017-04-19T01:56:37.605Z,8.25
2017-04-19T01:57:37.830Z,8.07
2017-04-19T01:58:37.869Z,8.92
2017-04-19T01:59:37.878Z,9.67
2017-04-19T02:00:38.710Z,8.35
2017-04-19T02:11:23.444Z,8.32
2017-04-19T02:12:23.475Z,8.15
2017-04-19T02:13:23.547Z,8.13
2017-04-19T02:14:23.709Z,9.47
2017-04-19T02:15:23.709Z,10.03
2017-04-19T02:16:23.718Z,11.35
2017-04-19T02:17:23.789Z,8.57
2017-04-19T02:18:24.476Z,8.90
2017-04-19T02:19:24.484Z,10.75
2017-04-19T02:20:24.607Z,8.88
2017-04-19T02:21:24.648Z,10.02
2017-04-19T02:22:24.665Z,9.17
2017-04-19T02:23:24.680Z,8.38
2017-04-19T02:24:24.700Z,9.32
2017-04-19T02:25:31.362Z,8.78
2017-04-19T02:26:31.355Z,9.05
2017-04-19T02:27:31.396Z,10.70
2017-04-19T02:28:31.589Z,9.15
2017-04-19T02:29:31.722Z,10.20
2017-04-19T02:30:31.748Z,8.20
2017-04-19T02:31:31.758Z,9.55
2017-04-19T02:32:31.790Z,9.08
2017-04-19T02:33:31.833Z,9.18
2017-04-19T02:34:31.867Z,10.95
2017-04-19T02:35:32.619Z,10.33
2017-04-19T02:36:32.728Z,10.30
2017-04-19T02:37:32.912Z,11.08
2017-04-19T02:38:32.985Z,9.30
2017-04-19T02:39:33.008Z,11.73
2017-04-19T02:40:33.039Z,9.88
2017-04-19T02:41:33.066Z,9.68
2017-04-19T02:42:33.386Z,9.65
2017-04-19T02:43:33.545Z,9.45
2017-04-19T02:44:34.002Z,9.95
2017-04-19T02:45:34.028Z,11.92
2017-04-19T02:46:34.065Z,10.02
2017-04-19T02:47:34.059Z,9.73
2017-04-19T02:48:34.103Z,12.27
2017-04-19T02:49:34.946Z,9.95
2017-04-19T02:50:35.043Z,8.88
2017-04-19T02:51:35.797Z,9.80
2017-04-19T02:52:35.958Z,10.10
2017-04-19T02:53:36.665Z,13.23
2017-04-19T02:54:36.693Z,11.07
2017-04-19T02:55:36.937Z,11.18
2017-04-19T02:56:37.138Z,9.12
2017-04-19T02:57:37.228Z,13.40
2017-04-19T02:58:38.086Z,12.25
2017-04-19T02:59:38.183Z,10.55
2017-04-19T03:00:38.238Z,10.20
2017-04-19T03:01:38.312Z,11.27
2017-04-19T03:02:38.336Z,9.93
2017-04-19T03:03:38.402Z,10.72
2017-04-19T03:04:38.477Z,9.50
2017-04-19T03:05:38.526Z,10.82
2017-04-19T03:06:38.706Z,14.65
2017-04-19T03:07:38.883Z,10.45
2017-04-19T03:08:38.989Z,12.15
2017-04-19T03:09:39.123Z,11.63
2017-04-19T03:10:39.267Z,12.42
2017-04-19T03:11:39.931Z,11.13
2017-04-19T03:12:39.981Z,10.92
2017-04-19T03:13:40.080Z,15.53
2017-04-19T03:14:40.897Z,10.93
2017-04-19T03:15:41.032Z,11.25
2017-04-19T03:16:41.082Z,11.33
2017-04-19T03:17:41.750Z,11.05
2017-04-19T03:18:41.791Z,10.90
2017-04-19T03:19:41.839Z,13.55
2017-04-19T03:20:42.073Z,13.38
2017-04-19T03:21:42.134Z,11.30
2017-04-19T03:22:42.133Z,15.83
2017-04-19T03:23:49.623Z,12.30
2017-04-19T03:24:49.738Z,11.40
2017-04-19T03:25:49.801Z,12.40
2017-04-19T03:26:50.721Z,12.53
2017-04-19T03:27:50.816Z,12.10
2017-04-19T03:28:50.896Z,11.10
2017-04-19T03:29:50.893Z,11.62
2017-04-19T03:30:50.901Z,12.38
2017-04-19T03:31:50.938Z,10.20
2017-04-19T03:32:50.949Z,10.80
2017-04-19T03:33:51.043Z,14.50
2017-04-19T03:34:51.789Z,10.75
2017-04-19T03:35:51.932Z,11.45
2017-04-19T03:36:51.945Z,10.43
2017-04-19T03:37:52.011Z,11.37
2017-04-19T03:38:52.011Z,10.95
2017-04-19T03:39:52.062Z,10.93
2017-04-19T03:40:52.108Z,11.28
2017-04-19T03:41:52.161Z,10.50
2017-04-19T03:42:52.967Z,13.02
2017-04-19T03:43:53.593Z,10.97
2017-04-19T03:44:53.606Z,12.12
2017-04-19T03:45:54.519Z,10.72
2017-04-19T03:46:54.590Z,10.88
2017-04-19T03:47:54.751Z,10.30
2017-04-19T03:48:54.847Z,11.27
2017-04-19T03:49:55.046Z,10.10
2017-04-19T03:50:55.138Z,10.43
2017-04-19T03:51:55.173Z,10.87
2017-04-19T03:52:55.214Z,10.18
2017-04-19T03:53:57.049Z,10.48
2017-04-19T03:54:57.870Z,10.58
2017-04-19T03:55:59.029Z,10.92
2017-04-19T03:56:59.107Z,9.63
2017-04-19T03:57:59.165Z,11.05
2017-04-19T03:58:59.200Z,11.23
2017-04-19T03:59:59.291Z,11.88
2017-04-19T04:00:59.558Z,11.88
2017-04-19T04:02:00.343Z,10.58
2017-04-19T04:03:00.471Z,13.53
2017-04-19T04:04:00.497Z,11.75
2017-04-19T04:05:01.290Z,11.30
2017-04-19T04:06:01.464Z,12.27
2017-04-19T04:07:01.643Z,11.18
2017-04-19T04:08:02.407Z,15.70
2017-04-19T04:09:02.451Z,11.10
2017-04-19T04:10:02.535Z,11.18
2017-04-19T04:11:02.606Z,10.92
2017-04-19T04:12:02.760Z,12.10
2017-04-19T04:13:02.797Z,16.63
2017-04-19T04:14:02.982Z,12.72
2017-04-19T04:15:03.007Z,11.27
2017-04-19T04:16:03.055Z,12.67
2017-04-19T04:17:03.098Z,12.20
2017-04-19T04:18:03.887Z,12.05
2017-04-19T04:19:03.913Z,11.58
2017-04-19T04:20:04.486Z,15.07
2017-04-19T04:21:05.304Z,13.80
2017-04-19T04:22:05.404Z,10.95
2017-04-19T04:23:05.539Z,12.23
2017-04-19T04:24:05.574Z,13.57
2017-04-19T04:25:05.571Z,12.68
2017-04-19T04:26:06.155Z,10.68
2017-04-19T04:27:06.195Z,14.33
2017-04-19T04:28:06.317Z,11.30
2017-04-19T04:29:06.341Z,12.05
2017-04-19T04:30:08.518Z,10.02
2017-04-19T04:31:08.579Z,12.43
2017-04-19T04:32:08.894Z,12.57
2017-04-19T04:33:08.947Z,11.53
2017-04-19T04:34:09.036Z,12.40
2017-04-19T04:35:09.159Z,11.22
2017-04-19T04:36:09.197Z,11.80
2017-04-19T04:37:12.033Z,16.93
2017-04-19T04:38:12.432Z,13.23
2017-04-19T04:39:12.468Z,11.77
2017-04-19T04:40:12.496Z,10.53
2017-04-19T04:41:12.510Z,11.07
2017-04-19T04:42:12.473Z,11.17
2017-04-19T04:43:12.561Z,11.53
2017-04-19T04:44:12.605Z,12.73
2017-04-19T04:45:12.634Z,11.93
2017-04-19T04:46:12.782Z,10.88
2017-04-19T04:47:12.913Z,11.92
2017-04-19T04:48:14.389Z,12.35
2017-04-19T04:49:15.037Z,11.87
2017-04-19T04:50:15.038Z,13.30
2017-04-19T04:51:15.811Z,12.30
2017-04-19T04:52:15.920Z,12.72
2017-04-19T04:53:16.808Z,10.45
2017-04-19T04:54:16.890Z,13.77
2017-04-19T04:55:16.961Z,15.47
2017-04-19T04:56:17.125Z,17.95
2017-04-19T04:57:17.933Z,15.78
2017-04-19T04:58:19.480Z,10.80
2017-04-19T04:59:19.550Z,13.85
2017-04-19T05:00:19.622Z,12.87
2017-04-19T05:01:19.745Z,13.33
2017-04-19T05:02:19.787Z,10.87
2017-04-19T05:03:19.801Z,11.37
2017-04-19T05:04:19.814Z,11.30
2017-04-19T05:05:20.051Z,11.88
2017-04-19T05:06:20.991Z,12.38
2017-04-19T05:07:21.050Z,11.53
2017-04-19T05:08:21.134Z,11.20
2017-04-19T05:09:21.190Z,14.33
2017-04-19T05:10:28.328Z,11.50
2017-04-19T05:11:28.384Z,11.38
2017-04-19T05:12:28.449Z,11.92
2017-04-19T05:13:28.506Z,11.27
2017-04-19T05:14:28.535Z,11.73
2017-04-19T05:15:29.187Z,12.17
2017-04-19T05:16:29.331Z,12.18
2017-04-19T05:17:29.578Z,12.28
2017-04-19T05:18:29.620Z,13.00
2017-04-19T05:19:30.448Z,11.48
2017-04-19T05:20:30.498Z,13.53
2017-04-19T05:21:30.528Z,12.12
2017-04-19T05:22:30.564Z,12.80
2017-04-19T05:23:30.591Z,12.12
2017-04-19T05:24:30.625Z,10.93
2017-04-19T05:25:30.660Z,13.93
2017-04-19T05:26:30.797Z,12.75
2017-04-19T05:27:30.886Z,12.32
2017-04-19T05:28:31.553Z,12.28
2017-04-19T05:29:33.308Z,11.35
2017-04-19T05:30:35.129Z,13.20
2017-04-19T05:31:35.148Z,13.62
2017-04-19T05:32:35.229Z,12.65
2017-04-19T05:33:35.297Z,11.63
2017-04-19T05:34:35.341Z,13.53
2017-04-19T05:35:35.333Z,11.30
2017-04-19T05:36:40.290Z,12.23
2017-04-19T05:37:41.273Z,10.72
2017-04-19T05:38:41.414Z,13.33
2017-04-19T05:39:42.614Z,13.23
2017-04-19T05:40:42.640Z,12.45
2017-04-19T05:41:42.809Z,12.78
2017-04-19T05:42:42.957Z,12.47
2017-04-19T05:43:43.046Z,11.47
2017-04-19T05:44:43.175Z,12.60
2017-04-19T05:45:43.222Z,11.07
2017-04-19T05:46:44.774Z,12.03
2017-04-19T05:47:44.959Z,11.57
2017-04-19T05:48:45.518Z,12.52
2017-04-19T05:49:45.538Z,12.37
2017-04-19T05:50:46.130Z,10.87
2017-04-19T05:51:46.180Z,12.18
2017-04-19T05:52:46.189Z,12.17
2017-04-19T05:53:46.201Z,16.83
2017-04-19T05:54:46.269Z,13.38
2017-04-19T05:55:47.310Z,12.30
2017-04-19T05:56:47.333Z,11.47
2017-04-19T05:57:47.378Z,13.20
2017-04-19T05:58:47.978Z,14.17
2017-04-19T05:59:48.084Z,12.02
2017-04-19T06:00:48.230Z,10.78
2017-04-19T06:01:48.249Z,11.48
2017-04-19T06:02:49.049Z,10.90
2017-04-19T06:03:49.140Z,11.80
2017-04-19T06:04:49.214Z,11.53
2017-04-19T06:05:49.385Z,10.02
2017-04-19T06:06:49.506Z,11.32
2017-04-19T06:07:49.549Z,12.17
2017-04-19T06:08:49.585Z,12.12
2017-04-19T06:09:50.541Z,11.95
2017-04-19T06:10:50.592Z,11.00
2017-04-19T06:11:50.735Z,15.93
2017-04-19T06:12:50.740Z,11.10
2017-04-19T06:13:50.766Z,11.68
2017-04-19T06:14:51.438Z,11.37
2017-04-19T06:15:51.594Z,10.52
2017-04-19T06:16:51.624Z,13.25
2017-04-19T06:17:52.472Z,12.83
2017-04-19T06:18:52.519Z,11.12
2017-04-19T06:19:52.629Z,12.43
2017-04-19T06:20:52.726Z,14.37
2017-04-19T06:21:52.943Z,12.32
2017-04-19T06:22:52.913Z,10.38
2017-04-19T06:23:53.195Z,16.07
2017-04-19T06:24:53.240Z,12.03
2017-04-19T06:25:53.291Z,12.42
2017-04-19T06:26:53.441Z,10.78
2017-04-19T06:27:53.697Z,11.68
2017-04-19T06:28:53.736Z,13.75
2017-04-19T06:29:53.744Z,10.93
2017-04-19T06:30:53.765Z,11.25
2017-04-19T06:31:55.699Z,10.95
2017-04-19T06:32:55.764Z,11.18
2017-04-19T06:33:56.712Z,11.05
2017-04-19T06:34:58.074Z,11.33
2017-04-19T06:35:58.102Z,10.83
2017-04-19T06:36:58.166Z,11.97
2017-04-19T06:37:59.016Z,12.45
2017-04-19T06:38:59.177Z,11.53
2017-04-19T06:39:59.379Z,11.35
2017-04-19T06:40:59.478Z,10.23
2017-04-19T06:41:59.529Z,10.67
2017-04-19T06:43:07.108Z,10.97
2017-04-19T06:44:07.256Z,11.43
2017-04-19T06:45:07.642Z,13.37
2017-04-19T06:46:08.030Z,10.27
2017-04-19T06:47:08.479Z,9.60
2017-04-19T06:48:09.073Z,10.92
2017-04-19T06:49:09.107Z,9.98
2017-04-19T06:50:09.155Z,9.60
2017-04-19T06:51:09.701Z,8.30
2017-04-19T06:52:09.728Z,9.37
2017-04-19T06:53:10.366Z,9.50
2017-04-19T06:54:10.377Z,8.60
2017-04-19T06:55:10.394Z,9.17
2017-04-19T06:56:10.565Z,8.58
2017-04-19T06:57:10.751Z,10.12
2017-04-19T06:58:10.815Z,8.20
2017-04-19T06:59:10.866Z,7.90
2017-04-19T07:00:10.890Z,7.63
2017-04-19T07:01:10.922Z,7.38
2017-04-19T07:02:10.943Z,8.12
2017-04-19T07:03:11.036Z,7.07
2017-04-19T07:04:11.163Z,9.80
2017-04-19T07:05:11.837Z,8.33
2017-04-19T07:06:11.929Z,7.08
2017-04-19T07:07:11.990Z,7.87
2017-04-19T07:08:12.718Z,7.38
2017-04-19T07:09:12.812Z,7.60
2017-04-19T07:10:12.810Z,8.13
2017-04-19T07:11:12.878Z,8.37
2017-04-19T07:12:13.594Z,6.93
2017-04-19T07:13:14.444Z,8.92
2017-04-19T07:14:14.766Z,6.12
2017-04-19T07:15:14.807Z,6.12
2017-04-19T07:16:14.875Z,6.97
2017-04-19T07:17:15.073Z,7.35
2017-04-19T07:18:15.134Z,7.12
2017-04-19T07:19:15.147Z,6.07
2017-04-19T07:20:15.167Z,6.27
2017-04-19T07:21:16.070Z,6.28
2017-04-19T07:22:16.134Z,6.55
2017-04-19T07:23:16.151Z,6.23
2017-04-19T07:24:16.212Z,5.38
2017-04-19T07:25:16.292Z,7.55
2017-04-19T07:26:16.362Z,6.08
2017-04-19T07:27:16.439Z,6.77
2017-04-19T07:28:16.505Z,6.22
2017-04-19T07:29:16.653Z,5.98
2017-04-19T07:30:16.776Z,6.18
2017-04-19T07:31:17.609Z,6.33
2017-04-19T07:32:18.426Z,7.37
2017-04-19T07:33:18.498Z,20.03
2017-04-19T07:34:18.938Z,5.67
2017-04-19T07:35:18.979Z,5.77
2017-04-19T07:36:18.997Z,5.27
2017-04-19T07:37:19.030Z,4.58
2017-04-19T07:38:19.643Z,4.12
2017-04-19T07:39:19.783Z,3.98
2017-04-19T07:40:19.816Z,4.95
2017-04-19T07:41:20.101Z,4.00
2017-04-19T07:42:20.135Z,5.40
2017-04-19T07:43:20.816Z,5.62
2017-04-19T07:44:20.869Z,5.33
2017-04-19T07:45:20.935Z,4.70
2017-04-19T07:46:21.053Z,5.05
2017-04-19T07:47:21.723Z,4.78
2017-04-19T07:48:22.499Z,4.52
2017-04-19T07:49:22.533Z,4.38
2017-04-19T07:50:22.550Z,4.55
2017-04-19T07:51:22.613Z,4.47
2017-04-19T07:52:22.635Z,3.92
2017-04-19T07:53:22.791Z,4.25
2017-04-19T07:54:22.889Z,4.42
2017-04-19T07:55:22.953Z,4.28
2017-04-19T07:56:22.979Z,3.88
2017-04-19T07:57:23.040Z,3.48
2017-04-19T07:58:23.168Z,3.73
2017-04-19T07:59:23.230Z,4.12
2017-04-19T08:00:23.331Z,4.22
2017-04-19T08:01:23.590Z,3.98
2017-04-19T08:02:23.640Z,3.92
2017-04-19T08:03:23.703Z,3.78
2017-04-19T08:04:23.796Z,4.02
2017-04-19T08:05:23.829Z,4.42
2017-04-19T08:06:25.188Z,3.12
2017-04-19T08:07:25.242Z,3.82
2017-04-19T08:08:25.276Z,3.37
2017-04-19T08:09:25.386Z,3.68
2017-04-19T08:10:25.449Z,3.63
2017-04-19T08:11:25.521Z,3.33
2017-04-19T08:12:26.095Z,3.25
2017-04-19T08:13:26.174Z,3.70
2017-04-19T08:14:27.027Z,3.07
2017-04-19T08:15:27.039Z,3.53
2017-04-19T08:16:27.046Z,4.50
2017-04-19T08:17:27.318Z,3.12
2017-04-19T08:18:28.863Z,3.48
2017-04-19T08:19:28.824Z,2.72
2017-04-19T08:20:28.973Z,3.60
2017-04-19T08:21:29.098Z,3.52
2017-04-19T08:22:29.136Z,3.10
2017-04-19T08:23:29.897Z,3.27
2017-04-19T08:24:30.036Z,3.68
2017-04-19T08:25:30.073Z,3.77
2017-04-19T08:26:30.121Z,2.73
2017-04-19T08:27:30.911Z,3.22
2017-04-19T08:28:30.954Z,3.13
2017-04-19T08:29:31.077Z,3.63
2017-04-19T08:30:31.935Z,3.67
2017-04-19T08:31:32.830Z,4.63
2017-04-19T08:32:33.615Z,2.95
2017-04-19T08:33:34.434Z,3.13
2017-04-19T08:34:34.713Z,3.52
2017-04-19T08:35:34.721Z,3.72
2017-04-19T08:36:34.759Z,3.72
2017-04-19T08:37:34.891Z,3.57
2017-04-19T08:38:35.132Z,2.95
2017-04-19T08:39:35.887Z,3.23
2017-04-19T08:40:36.056Z,2.80
2017-04-19T08:41:36.098Z,2.75
2017-04-19T08:42:36.177Z,2.98
2017-04-19T08:43:37.009Z,3.22
2017-04-19T08:44:37.262Z,3.00
2017-04-19T08:45:37.384Z,3.20
2017-04-19T08:46:38.042Z,3.28
2017-04-19T08:47:38.167Z,2.75
2017-04-19T08:48:38.230Z,3.35
2017-04-19T08:49:38.250Z,3.07
2017-04-19T08:50:38.414Z,2.68
2017-04-19T08:51:38.530Z,2.75
2017-04-19T08:52:38.718Z,2.87
2017-04-19T08:53:38.861Z,3.15
2017-04-19T08:54:38.959Z,2.70
2017-04-19T08:55:39.001Z,2.87
2017-04-19T08:56:39.037Z,2.63
2017-04-19T08:57:39.795Z,2.83
2017-04-19T08:58:39.875Z,2.62
2017-04-19T08:59:40.041Z,3.10
2017-04-19T09:00:46.966Z,3.35
2017-04-19T09:01:47.082Z,3.65
2017-04-19T09:02:47.087Z,3.02
2017-04-19T09:03:47.114Z,3.80
2017-04-19T09:04:47.778Z,3.40
2017-04-19T09:05:48.598Z,3.60
2017-04-19T09:06:48.651Z,3.45
2017-04-19T09:07:48.675Z,3.55
2017-04-19T09:08:48.768Z,3.55
2017-04-19T09:09:48.870Z,3.03
2017-04-19T09:10:48.935Z,3.62
2017-04-19T09:11:48.915Z,3.95
2017-04-19T09:12:48.956Z,4.65
2017-04-19T09:13:49.058Z,2.82
2017-04-19T09:14:49.105Z,3.33
2017-04-19T09:15:49.153Z,4.07
2017-04-19T09:16:49.950Z,3.17
2017-04-19T09:17:50.076Z,3.43
2017-04-19T09:18:50.056Z,3.45
2017-04-19T09:19:50.118Z,2.90
2017-04-19T09:20:50.161Z,2.97
2017-04-19T09:21:50.271Z,2.75
2017-04-19T09:22:50.493Z,3.32
2017-04-19T09:23:50.533Z,2.85
2017-04-19T09:24:50.553Z,3.22
2017-04-19T09:25:51.270Z,2.92
2017-04-19T09:26:51.298Z,2.70
2017-04-19T09:27:51.471Z,2.67
2017-04-19T09:28:51.544Z,2.97
2017-04-19T09:29:51.577Z,3.27
2017-04-19T09:30:51.643Z,3.22
2017-04-19T09:31:51.678Z,3.42
2017-04-19T09:32:51.895Z,2.93
2017-04-19T09:33:52.057Z,2.77
2017-04-19T09:34:52.867Z,3.42
2017-04-19T09:35:52.909Z,3.68
2017-04-19T09:36:52.922Z,2.92
2017-04-19T09:37:53.019Z,3.62
2017-04-19T09:38:53.044Z,4.33
2017-04-19T09:39:53.102Z,3.38
2017-04-19T09:40:53.150Z,3.52
2017-04-19T09:41:53.194Z,3.65
2017-04-19T09:42:53.357Z,3.60
2017-04-19T09:43:53.349Z,3.80
2017-04-19T09:44:53.606Z,7.82
2017-04-19T09:45:53.711Z,3.73
2017-04-19T09:46:54.665Z,3.83
2017-04-19T09:47:55.554Z,3.10
2017-04-19T09:48:55.606Z,3.02
2017-04-19T09:49:55.791Z,3.52
2017-04-19T09:50:55.849Z,3.38
2017-04-19T09:51:55.930Z,3.27
2017-04-19T09:52:56.166Z,3.45
2017-04-19T09:53:56.578Z,3.30
2017-04-19T09:54:56.706Z,3.23
2017-04-19T09:55:57.671Z,3.20
2017-04-19T09:56:57.875Z,3.37
2017-04-19T09:57:57.972Z,2.83
2017-04-19T09:58:58.024Z,3.32
2017-04-19T09:59:58.169Z,7.18
2017-04-19T10:00:58.219Z,4.10
2017-04-19T10:01:58.501Z,3.33
2017-04-19T10:03:00.009Z,3.70
2017-04-19T10:04:00.080Z,3.00
2017-04-19T10:05:00.113Z,3.40
2017-04-19T10:06:00.250Z,3.30
2017-04-19T10:07:00.379Z,2.58
2017-04-19T10:08:00.414Z,3.45
2017-04-19T10:09:00.459Z,4.40
2017-04-19T10:10:00.502Z,3.45
2017-04-19T10:11:00.607Z,2.60
2017-04-19T10:12:00.756Z,3.22
2017-04-19T10:13:00.866Z,6.67
2017-04-19T10:14:01.109Z,3.78
2017-04-19T10:15:01.169Z,5.50
2017-04-19T10:16:01.306Z,3.98
2017-04-19T10:17:01.402Z,3.55
2017-04-19T10:18:01.432Z,4.27
2017-04-19T10:19:01.465Z,4.43
2017-04-19T10:20:02.370Z,3.72
2017-04-19T10:21:02.390Z,6.30
2017-04-19T10:22:03.049Z,3.75
2017-04-19T10:23:03.058Z,3.23
2017-04-19T10:24:03.218Z,4.33
2017-04-19T10:25:03.306Z,4.22
2017-04-19T10:26:03.347Z,3.23
2017-04-19T10:27:03.401Z,3.22
2017-04-19T10:28:03.441Z,3.42
2017-04-19T10:29:03.505Z,3.98
2017-04-19T10:30:03.634Z,3.47
2017-04-19T10:31:03.664Z,3.70
2017-04-19T10:32:03.690Z,3.40
2017-04-19T10:33:03.730Z,2.92
2017-04-19T10:34:03.759Z,3.73
2017-04-19T10:35:03.799Z,4.07
2017-04-19T10:36:03.870Z,3.13
2017-04-19T10:37:04.018Z,3.80
2017-04-19T10:38:04.088Z,3.80
2017-04-19T10:39:05.082Z,3.42
2017-04-19T10:40:05.077Z,2.82
2017-04-19T10:41:05.862Z,3.88
2017-04-19T10:42:05.872Z,2.80
2017-04-19T10:43:06.879Z,3.48
2017-04-19T10:44:07.029Z,4.83
2017-04-19T10:45:07.045Z,6.12
2017-04-19T10:46:07.063Z,3.67
2017-04-19T10:47:07.828Z,3.02
2017-04-19T10:48:07.898Z,5.60
2017-04-19T10:49:08.669Z,3.82
2017-04-19T10:50:08.686Z,3.53
2017-04-19T10:51:08.712Z,3.27
2017-04-19T10:52:08.762Z,3.70
2017-04-19T10:53:09.079Z,3.33
2017-04-19T10:54:09.102Z,2.85
2017-04-19T10:55:09.126Z,4.02
2017-04-19T10:56:09.931Z,3.28
2017-04-19T10:57:09.991Z,2.57
2017-04-19T10:58:11.234Z,3.00
2017-04-19T10:59:12.021Z,2.85
2017-04-19T11:00:12.269Z,2.70
2017-04-19T11:01:12.860Z,2.90
2017-04-19T11:02:12.909Z,3.07
2017-04-19T11:03:12.953Z,2.60
2017-04-19T11:04:13.113Z,3.05
2017-04-19T11:05:13.208Z,2.47
2017-04-19T11:06:13.232Z,3.37
2017-04-19T11:07:14.062Z,4.23
2017-04-19T11:08:14.126Z,2.65
2017-04-19T11:09:14.170Z,3.28
2017-04-19T11:10:14.202Z,3.08
2017-04-19T11:11:14.146Z,3.08
2017-04-19T11:12:14.232Z,2.60
2017-04-19T11:13:14.298Z,3.08
2017-04-19T11:14:14.322Z,3.30
2017-04-19T11:15:14.388Z,2.60
2017-04-19T11:16:14.482Z,2.58
2017-04-19T11:17:14.848Z,5.70
2017-04-19T11:18:14.891Z,2.25
2017-04-19T11:19:14.929Z,2.48
2017-04-19T11:20:15.072Z,2.95
2017-04-19T11:21:15.180Z,2.60
2017-04-19T11:22:15.325Z,2.40
2017-04-19T11:23:15.672Z,2.28
2017-04-19T11:24:15.736Z,2.67
2017-04-19T11:25:15.806Z,2.53
2017-04-19T11:26:15.826Z,2.58
2017-04-19T11:27:16.562Z,2.83
2017-04-19T11:28:16.575Z,2.98
2017-04-19T11:29:16.565Z,2.73
2017-04-19T11:30:16.562Z,2.90
2017-04-19T11:31:17.370Z,2.98
2017-04-19T11:32:17.401Z,2.70
2017-04-19T11:33:17.623Z,2.88
2017-04-19T11:34:17.713Z,2.42
2017-04-19T11:35:17.786Z,2.87
2017-04-19T11:36:17.804Z,3.03
2017-04-19T11:37:17.817Z,2.88
2017-04-19T11:38:17.850Z,2.93
2017-04-19T11:39:18.634Z,2.97
2017-04-19T11:40:18.978Z,3.08
2017-04-19T11:41:19.030Z,2.67
2017-04-19T11:42:19.193Z,2.53
2017-04-19T11:43:19.171Z,3.17
2017-04-19T11:44:19.213Z,4.07
2017-04-19T11:45:20.251Z,3.42
2017-04-19T11:46:20.287Z,7.80
2017-04-19T11:47:20.317Z,3.53
2017-04-19T11:48:20.345Z,3.02
2017-04-19T11:49:20.590Z,3.37
2017-04-19T11:50:20.846Z,2.88
2017-04-19T11:51:20.919Z,3.52
2017-04-19T11:52:21.152Z,3.53
2017-04-19T11:53:21.190Z,3.28
2017-04-19T11:54:21.305Z,3.35
2017-04-19T11:55:21.846Z,2.95
2017-04-19T11:56:22.616Z,3.18
2017-04-19T11:57:22.679Z,4.42
2017-04-19T11:58:23.487Z,3.62
2017-04-19T11:59:23.610Z,4.48
2017-04-19T12:00:24.026Z,3.72
2017-04-19T12:01:24.862Z,3.92
2017-04-19T12:02:24.886Z,4.02
2017-04-19T12:03:24.921Z,3.77
2017-04-19T12:04:24.970Z,3.78
2017-04-19T12:05:25.399Z,4.80
2017-04-19T12:06:25.486Z,4.88
2017-04-19T12:07:25.486Z,4.22
2017-04-19T12:08:25.587Z,4.27
2017-04-19T12:09:25.698Z,5.60
2017-04-19T12:10:26.038Z,4.57
2017-04-19T12:11:26.803Z,4.27
2017-04-19T12:12:26.807Z,4.37
2017-04-19T12:13:26.853Z,3.58
2017-04-19T12:14:27.519Z,4.02
2017-04-19T12:15:27.917Z,3.95
2017-04-19T12:16:27.985Z,4.28
2017-04-19T12:17:28.086Z,3.83
2017-04-19T12:18:28.100Z,3.58
2017-04-19T12:19:30.942Z,3.52
2017-04-19T12:20:31.019Z,4.00
2017-04-19T12:21:31.911Z,3.77
2017-04-19T12:22:31.955Z,3.90
2017-04-19T12:23:32.055Z,4.32
2017-04-19T12:24:32.881Z,3.77
2017-04-19T12:25:32.912Z,3.78
2017-04-19T12:26:33.037Z,5.68
2017-04-19T12:27:33.219Z,4.00
2017-04-19T12:28:33.254Z,4.23
2017-04-19T12:29:33.547Z,3.73
2017-04-19T12:30:33.630Z,3.43
2017-04-19T12:31:33.665Z,3.75
2017-04-19T12:32:33.682Z,4.12
2017-04-19T12:33:33.944Z,6.03
2017-04-19T12:34:33.990Z,4.53
2017-04-19T12:35:34.068Z,3.25
2017-04-19T12:36:34.102Z,3.55
2017-04-19T12:37:34.222Z,5.62
2017-04-19T12:38:34.411Z,3.98
2017-04-19T12:39:35.226Z,4.17
2017-04-19T12:40:36.013Z,4.62
2017-04-19T12:41:36.093Z,4.47
2017-04-19T12:42:36.314Z,4.48
2017-04-19T12:43:36.402Z,3.78
2017-04-19T12:44:37.040Z,4.20
2017-04-19T12:45:37.150Z,4.53
2017-04-19T12:46:37.278Z,4.15
2017-04-19T12:47:37.338Z,4.47
2017-04-19T12:48:37.435Z,4.40
2017-04-19T12:49:37.552Z,5.62
2017-04-19T12:50:38.170Z,4.12
2017-04-19T12:51:38.955Z,3.58
2017-04-19T12:52:39.018Z,5.42
2017-04-19T12:53:39.144Z,4.98
2017-04-19T12:54:39.243Z,4.45
2017-04-19T12:55:39.414Z,4.73
2017-04-19T12:56:39.561Z,4.88
2017-04-19T12:57:39.611Z,4.38
2017-04-19T12:58:39.618Z,4.57
2017-04-19T12:59:39.690Z,4.77
2017-04-19T13:00:40.286Z,3.88
2017-04-19T13:01:41.065Z,4.15
2017-04-19T13:02:41.898Z,3.78
2017-04-19T13:03:41.908Z,4.42
2017-04-19T13:04:41.971Z,3.72
2017-04-19T13:05:42.225Z,3.38
2017-04-19T13:06:42.338Z,4.43
2017-04-19T13:07:42.338Z,4.08
2017-04-19T13:08:42.382Z,3.87
2017-04-19T13:09:43.177Z,4.37
2017-04-19T13:10:43.387Z,4.17
2017-04-19T13:11:43.402Z,3.45
2017-04-19T13:12:43.533Z,5.30
2017-04-19T13:13:43.612Z,3.45
2017-04-19T13:14:43.662Z,4.85
2017-04-19T13:15:44.062Z,4.50
2017-04-19T13:16:44.171Z,4.80
2017-04-19T13:17:44.298Z,4.57
2017-04-19T13:18:44.742Z,4.65
2017-04-19T13:19:44.981Z,4.73
2017-04-19T13:20:45.567Z,4.68
2017-04-19T13:21:46.586Z,4.40
2017-04-19T13:22:46.911Z,4.27
2017-04-19T13:23:47.550Z,3.62